首页
METAR-TAF:

METAR-TAF

机场 :

Moosonee, 安大略省, 加拿大

纬度: 51-16N, 经度: 080-39W, 海拔: 10米

当前天气观测

该预报发布于23分钟前的20:00 UTC
风速10节,风向东转东南,有时为15节阵风,在南转南东之间变化
温度 25°C
湿度 32%
气压 1006 hPa
能見度: 14.5公里
天空无云

METAR: CYMO 242000Z AUTO 12010G15KT 090V150 9SM CLR 25/07 A2972 RMK SLP065 DENSITY ALT 1400FT

时间: 16:23 (20:23 UTC)

预报

该预报发布于2小时和45分钟前的17:38 UTC
预报有效从24日的 18点(UTC)到 25日的 06点(UTC)
风速10节,风向东转东南
能見度: 10公里
少量云层高于22000英尺
从 24日的 2100点(UTC)
风速10节,风向
能見度: 10公里
多云层高于18000英尺
从 25日的 0000点(UTC)
风速10节,风向东转东南
能見度: 10公里
多云层高于13000英尺

TAF: CYMO 241738Z 2418/2506 11010KT P6SM FEW220 FM242100 10010KT P6SM BKN180 FM250000 11010KT P6SM BKN130 RMK FCST BASED ON AUTO OBS. NXT FCST BY 250000Z

超过4000个机场的气象观测和天气预报(METAR&TAF报告)。

可查询的气象台以黄色和红色小点在地图上表示。

将鼠标移到小点上方,可查看气象台名称。

然后点击查看天气观测和预报。

如需切换地图:点击带黑十字的绿色按钮放大地图;点击带横线的绿色按钮缩小地图;或者点击绿色箭头查看邻近地区的地图。


METAR-TAF: